createdAt,value
2018-02-01T00:02:05.130Z,4.90
2018-02-01T00:04:34.551Z,5.00
2018-02-01T00:07:03.061Z,5.00
2018-02-01T00:09:31.919Z,5.00
2018-02-01T00:12:01.360Z,5.00
2018-02-01T00:14:29.851Z,5.10
2018-02-01T00:16:58.358Z,5.10
2018-02-01T00:19:26.999Z,5.00
2018-02-01T00:21:55.430Z,5.00
2018-02-01T00:24:23.851Z,5.00
2018-02-01T00:26:52.310Z,5.00
2018-02-01T00:29:21.514Z,5.00
2018-02-01T00:31:50.799Z,5.00
2018-02-01T00:34:19.989Z,5.00
2018-02-01T00:36:48.254Z,5.00
2018-02-01T00:39:16.902Z,5.00
2018-02-01T00:41:45.331Z,5.00
2018-02-01T00:44:15.310Z,5.00
2018-02-01T00:46:43.764Z,5.00
2018-02-01T00:49:12.182Z,5.10
2018-02-01T00:51:40.630Z,5.10
2018-02-01T00:54:09.198Z,5.10
2018-02-01T00:56:38.391Z,5.10
2018-02-01T00:59:07.566Z,5.20
2018-02-01T01:01:35.922Z,5.10
2018-02-01T01:04:04.802Z,5.20
2018-02-01T01:06:33.218Z,5.10
2018-02-01T01:09:01.662Z,5.20
2018-02-01T01:11:30.094Z,5.20
2018-02-01T01:13:58.539Z,5.30
2018-02-01T01:16:26.962Z,5.30
2018-02-01T01:18:56.167Z,5.20
2018-02-01T01:21:25.349Z,5.10
2018-02-01T01:23:54.658Z,5.10
2018-02-01T01:26:23.198Z,5.20
2018-02-01T01:28:51.633Z,5.00
2018-02-01T01:31:20.852Z,5.00
2018-02-01T01:33:49.271Z,5.10
2018-02-01T01:36:17.719Z,5.00
2018-02-01T01:38:46.142Z,5.00
2018-02-01T01:41:14.590Z,5.00
2018-02-01T01:43:44.154Z,5.00
2018-02-01T01:46:13.381Z,5.10
2018-02-01T01:48:41.794Z,5.00
2018-02-01T01:51:10.244Z,4.90
2018-02-01T01:53:38.753Z,4.90
2018-02-01T01:56:07.242Z,4.80
2018-02-01T01:58:35.666Z,4.90
2018-02-01T02:01:04.094Z,4.80
2018-02-01T02:03:32.526Z,4.80
2018-02-01T02:06:00.994Z,4.70
2018-02-01T02:08:29.438Z,4.70
2018-02-01T02:10:57.877Z,4.70
2018-02-01T02:13:27.075Z,4.70
2018-02-01T02:15:55.493Z,4.60
2018-02-01T02:18:23.933Z,4.60
2018-02-01T02:20:52.383Z,4.60
2018-02-01T02:23:20.820Z,4.60
2018-02-01T02:25:50.026Z,4.60
2018-02-01T02:28:18.469Z,4.60
2018-02-01T02:30:46.902Z,4.50
2018-02-01T02:33:15.322Z,4.40
2018-02-01T02:35:43.790Z,4.40
2018-02-01T02:38:11.954Z,4.50
2018-02-01T02:40:40.390Z,4.50
2018-02-01T02:43:09.119Z,4.40
2018-02-01T02:45:37.558Z,4.50
2018-02-01T02:48:06.752Z,4.50
2018-02-01T02:50:35.946Z,4.50
2018-02-01T02:53:04.570Z,4.40
2018-02-01T02:55:33.038Z,4.40
2018-02-01T02:58:01.465Z,4.30
2018-02-01T03:00:29.886Z,4.30
2018-02-01T03:02:59.090Z,4.10
2018-02-01T03:05:28.289Z,4.20
2018-02-01T03:07:57.574Z,4.10
2018-02-01T03:10:26.001Z,4.10
2018-02-01T03:12:54.442Z,4.00
2018-02-01T03:15:23.701Z,4.10
2018-02-01T03:17:52.140Z,4.00
2018-02-01T03:20:21.318Z,4.00
2018-02-01T03:22:51.307Z,3.90
2018-02-01T03:25:19.783Z,3.90
2018-02-01T03:27:48.263Z,4.00
2018-02-01T03:30:17.615Z,3.90
2018-02-01T03:32:46.837Z,3.80
2018-02-01T03:35:15.353Z,3.90
2018-02-01T03:37:43.781Z,3.80
2018-02-01T03:40:12.986Z,3.80
2018-02-01T03:42:41.809Z,3.70
2018-02-01T03:45:10.250Z,3.80
2018-02-01T03:47:39.438Z,3.70
2018-02-01T03:50:07.978Z,3.70
2018-02-01T03:52:36.403Z,3.80
2018-02-01T03:55:05.345Z,3.90
2018-02-01T03:57:33.798Z,3.90
2018-02-01T04:00:02.787Z,3.90
2018-02-01T04:02:31.267Z,3.80
2018-02-01T04:05:00.470Z,3.80
2018-02-01T04:07:29.646Z,3.90
2018-02-01T04:09:58.083Z,3.80
2018-02-01T04:12:26.518Z,3.80
2018-02-01T04:14:54.926Z,3.80
2018-02-01T04:17:23.534Z,3.80
2018-02-01T04:19:51.986Z,3.80
2018-02-01T04:22:21.201Z,3.80
2018-02-01T04:24:49.616Z,3.80
2018-02-01T04:27:18.054Z,3.80
2018-02-01T04:29:46.477Z,3.80
2018-02-01T04:32:14.935Z,3.70
2018-02-01T04:34:43.366Z,3.80
2018-02-01T04:37:11.801Z,3.80
2018-02-01T04:39:40.214Z,3.70
2018-02-01T04:42:07.992Z,3.70
2018-02-01T04:44:36.430Z,3.70
2018-02-01T04:47:04.877Z,3.70
2018-02-01T04:49:34.055Z,3.70
2018-02-01T04:52:02.458Z,3.70
2018-02-01T04:54:31.746Z,3.70
2018-02-01T04:57:00.163Z,3.70
2018-02-01T04:59:28.590Z,3.60
2018-02-01T05:01:57.126Z,3.60
2018-02-01T05:04:25.606Z,3.60
2018-02-01T05:06:54.021Z,3.60
2018-02-01T05:09:22.462Z,3.60
2018-02-01T05:11:51.716Z,3.50
2018-02-01T05:14:20.197Z,3.50
2018-02-01T05:16:48.782Z,3.50
2018-02-01T05:19:17.197Z,3.60
2018-02-01T05:21:46.381Z,3.60
2018-02-01T05:24:14.818Z,3.60
2018-02-01T05:26:43.239Z,3.60
2018-02-01T05:29:12.570Z,3.60
2018-02-01T05:31:41.754Z,3.60
2018-02-01T05:34:10.638Z,3.60
2018-02-01T05:36:39.071Z,3.60
2018-02-01T05:39:07.514Z,3.60
2018-02-01T05:41:36.522Z,3.50
2018-02-01T05:44:05.356Z,3.50
2018-02-01T05:46:33.802Z,3.40
2018-02-01T05:49:02.354Z,3.30
2018-02-01T05:51:30.815Z,3.20
2018-02-01T05:53:59.494Z,3.30
2018-02-01T05:56:28.162Z,3.40
2018-02-01T05:58:56.589Z,3.40
2018-02-01T06:01:25.034Z,2.80
2018-02-01T06:03:53.458Z,2.60
2018-02-01T06:06:22.683Z,2.50
2018-02-01T06:08:51.122Z,2.40
2018-02-01T06:11:19.578Z,2.40
2018-02-01T06:13:47.840Z,2.30
2018-02-01T06:16:17.430Z,2.40
2018-02-01T06:18:46.903Z,2.20
2018-02-01T06:21:15.342Z,2.00
2018-02-01T06:23:44.877Z,2.10
2018-02-01T06:26:13.582Z,2.20
2018-02-01T06:28:43.501Z,2.00
2018-02-01T06:31:12.338Z,2.00
2018-02-01T06:33:41.818Z,2.30
2018-02-01T06:36:10.506Z,2.20
2018-02-01T06:38:39.211Z,2.40
2018-02-01T06:41:07.650Z,2.40
2018-02-01T06:43:36.065Z,2.40
2018-02-01T06:46:04.617Z,2.40
2018-02-01T06:48:33.414Z,2.40
2018-02-01T06:51:02.310Z,2.40
2018-02-01T06:53:30.993Z,2.50
2018-02-01T06:56:00.194Z,2.50
2018-02-01T06:58:30.894Z,2.60
2018-02-01T07:01:15.756Z,2.50
2018-02-01T07:03:46.073Z,2.50
2018-02-01T07:06:15.531Z,2.50
2018-02-01T07:08:46.228Z,2.50
2018-02-01T07:11:16.636Z,2.40
2018-02-01T07:13:46.115Z,2.60
2018-02-01T07:16:16.462Z,2.70
2018-02-01T07:18:49.530Z,2.60
2018-02-01T07:21:18.715Z,2.60
2018-02-01T07:23:47.725Z,2.70
2018-02-01T07:26:15.981Z,2.70
2018-02-01T07:28:45.173Z,2.70
2018-02-01T07:31:14.386Z,2.70
2018-02-01T07:33:43.086Z,2.70
2018-02-01T07:36:11.597Z,2.70
2018-02-01T07:38:40.189Z,2.70
2018-02-01T07:41:08.618Z,2.80
2018-02-01T07:43:37.809Z,2.90
2018-02-01T07:46:06.830Z,2.80
2018-02-01T07:48:35.242Z,2.80
2018-02-01T07:51:03.669Z,2.70
2018-02-01T07:53:32.134Z,2.80
2018-02-01T07:56:00.711Z,2.80
2018-02-01T07:58:29.161Z,2.90
2018-02-01T08:00:57.601Z,2.90
2018-02-01T08:03:26.786Z,2.80
2018-02-01T08:05:56.742Z,2.70
2018-02-01T08:08:25.181Z,2.70
2018-02-01T08:10:53.611Z,2.70
2018-02-01T08:13:22.050Z,2.70
2018-02-01T08:15:50.908Z,2.80
2018-02-01T08:18:19.519Z,2.80
2018-02-01T08:20:47.963Z,2.50
2018-02-01T08:23:16.391Z,2.80
2018-02-01T08:25:44.930Z,2.80
2018-02-01T08:28:13.755Z,2.80
2018-02-01T08:30:42.253Z,2.80
2018-02-01T08:33:11.181Z,2.90
2018-02-01T08:35:39.609Z,2.80
2018-02-01T08:38:08.031Z,2.90
2018-02-01T08:40:37.222Z,2.90
2018-02-01T08:43:06.409Z,2.90
2018-02-01T08:45:34.826Z,3.00
2018-02-01T08:48:03.318Z,3.10
2018-02-01T08:50:31.735Z,3.10
2018-02-01T08:53:00.176Z,3.00
2018-02-01T08:55:28.279Z,3.10
2018-02-01T08:57:56.733Z,3.10
2018-02-01T09:00:25.138Z,3.00
2018-02-01T09:02:53.575Z,3.00
2018-02-01T09:05:22.762Z,3.00
2018-02-01T09:07:52.145Z,3.10
2018-02-01T09:10:20.578Z,3.00
2018-02-01T09:12:48.998Z,3.00
2018-02-01T09:15:17.427Z,3.10
2018-02-01T09:17:46.245Z,3.00
2018-02-01T09:20:14.690Z,3.10
2018-02-01T09:22:43.214Z,3.10
2018-02-01T09:25:12.419Z,3.10
2018-02-01T09:27:40.837Z,3.00
2018-02-01T09:30:09.225Z,3.40
2018-02-01T09:32:38.430Z,3.40
2018-02-01T09:35:07.672Z,3.30
2018-02-01T09:37:36.093Z,3.40
2018-02-01T09:40:03.859Z,3.70
2018-02-01T09:42:32.298Z,3.60
2018-02-01T09:45:00.378Z,3.60
2018-02-01T09:47:28.851Z,3.40
2018-02-01T09:49:58.194Z,3.40
2018-02-01T09:52:26.638Z,3.30
2018-02-01T09:54:55.047Z,3.30
2018-02-01T09:57:23.494Z,3.50
2018-02-01T09:59:52.311Z,3.30
2018-02-01T10:02:20.831Z,3.30
2018-02-01T10:04:50.029Z,3.40
2018-02-01T10:07:19.227Z,3.30
2018-02-01T10:09:48.413Z,3.30
2018-02-01T10:12:16.854Z,3.50
2018-02-01T10:14:44.946Z,3.60
2018-02-01T10:17:13.364Z,3.50
2018-02-01T10:19:42.597Z,3.50
2018-02-01T10:22:11.022Z,3.60
2018-02-01T10:24:39.457Z,3.60
2018-02-01T10:27:08.046Z,3.60
2018-02-01T10:29:36.471Z,3.70
2018-02-01T10:32:05.683Z,3.50
2018-02-01T10:34:34.113Z,3.50
2018-02-01T10:37:01.995Z,3.50
2018-02-01T10:39:30.674Z,3.40
2018-02-01T10:41:59.093Z,3.60
2018-02-01T10:44:27.725Z,3.60
2018-02-01T10:46:55.619Z,3.70
2018-02-01T10:49:24.194Z,3.70
2018-02-01T10:51:52.618Z,3.80
2018-02-01T10:54:21.049Z,3.60
2018-02-01T10:56:51.093Z,3.70
2018-02-01T10:59:20.046Z,3.70
2018-02-01T11:01:48.568Z,3.60
2018-02-01T11:04:17.023Z,3.80
2018-02-01T11:06:45.446Z,3.70
2018-02-01T11:09:13.893Z,3.70
2018-02-01T11:11:42.314Z,3.70
2018-02-01T11:14:10.764Z,3.60
2018-02-01T11:16:39.190Z,3.60
2018-02-01T11:19:08.381Z,3.50
2018-02-01T11:21:36.829Z,3.60
2018-02-01T11:24:05.766Z,3.60
2018-02-01T11:26:34.965Z,3.50
2018-02-01T11:29:04.169Z,3.70
2018-02-01T11:31:33.377Z,3.80
2018-02-01T11:34:02.671Z,3.70
2018-02-01T11:36:31.870Z,3.70
2018-02-01T11:39:01.082Z,3.80
2018-02-01T11:41:29.589Z,3.70
2018-02-01T11:43:58.027Z,3.50
2018-02-01T11:46:27.042Z,3.50
2018-02-01T11:48:55.874Z,3.60
2018-02-01T11:51:24.293Z,3.60
2018-02-01T11:53:53.491Z,3.60
2018-02-01T11:56:21.922Z,3.70
2018-02-01T11:58:50.349Z,3.50
2018-02-01T12:01:18.813Z,3.70
2018-02-01T12:03:47.264Z,3.70
2018-02-01T12:06:15.775Z,3.60
2018-02-01T12:08:44.198Z,3.50
2018-02-01T12:11:13.386Z,3.50
2018-02-01T12:13:41.838Z,3.50
2018-02-01T12:16:10.269Z,3.50
2018-02-01T12:18:38.706Z,3.50
2018-02-01T12:21:07.126Z,3.60
2018-02-01T12:23:35.574Z,3.70
2018-02-01T12:26:03.998Z,3.60
2018-02-01T12:28:32.444Z,3.60
2018-02-01T12:31:00.890Z,3.60
2018-02-01T12:33:29.299Z,3.60
2018-02-01T12:35:57.811Z,3.60
2018-02-01T12:38:27.004Z,3.60
2018-02-01T12:40:56.208Z,3.70
2018-02-01T12:43:25.083Z,3.60
2018-02-01T12:45:53.518Z,3.80
2018-02-01T12:48:21.946Z,3.80
2018-02-01T12:50:50.357Z,3.80
2018-02-01T12:53:18.801Z,3.90
2018-02-01T12:55:47.223Z,3.90
2018-02-01T12:58:15.678Z,3.70
2018-02-01T13:00:44.864Z,3.70
2018-02-01T13:03:13.298Z,3.60
2018-02-01T13:05:41.723Z,3.60
2018-02-01T13:08:10.162Z,3.40
2018-02-01T13:10:38.744Z,3.40
2018-02-01T13:13:08.314Z,3.40
2018-02-01T13:15:37.512Z,3.50
2018-02-01T13:18:06.718Z,3.30
2018-02-01T13:20:35.574Z,3.50
2018-02-01T13:23:04.010Z,3.50
2018-02-01T13:25:32.454Z,3.40
2018-02-01T13:28:00.898Z,3.50
2018-02-01T13:30:29.327Z,3.40
2018-02-01T13:32:57.794Z,3.40
2018-02-01T13:35:26.246Z,3.50
2018-02-01T13:37:54.685Z,3.70
2018-02-01T13:40:23.890Z,3.70
2018-02-01T13:42:52.337Z,3.70
2018-02-01T13:45:20.418Z,3.60
2018-02-01T13:47:48.857Z,3.40
2018-02-01T13:50:17.297Z,3.50
2018-02-01T13:52:46.642Z,3.50
2018-02-01T13:55:14.512Z,3.70
2018-02-01T13:57:42.937Z,3.80
2018-02-01T14:00:11.370Z,3.90
2018-02-01T14:02:39.950Z,3.70
2018-02-01T14:05:08.410Z,3.70
2018-02-01T14:07:36.826Z,3.60
2018-02-01T14:10:05.410Z,3.40
2018-02-01T14:12:33.826Z,3.40
2018-02-01T14:15:02.279Z,3.40
2018-02-01T14:17:31.102Z,3.50
2018-02-01T14:20:00.333Z,3.60
2018-02-01T14:22:28.760Z,3.70
2018-02-01T14:24:57.173Z,3.60
2018-02-01T14:27:25.754Z,3.60
2018-02-01T14:29:54.953Z,3.50
2018-02-01T14:32:23.810Z,3.50
2018-02-01T14:34:52.238Z,3.40
2018-02-01T14:37:21.454Z,3.40
2018-02-01T14:39:49.887Z,3.40
2018-02-01T14:42:18.371Z,3.50
2018-02-01T14:44:46.809Z,3.60
2018-02-01T14:47:15.266Z,3.70
2018-02-01T14:49:44.478Z,3.60
2018-02-01T14:52:13.038Z,3.60
2018-02-01T14:54:42.261Z,3.60
2018-02-01T14:57:10.697Z,3.50
2018-02-01T14:59:39.149Z,3.60
2018-02-01T15:02:07.569Z,3.40
2018-02-01T15:04:36.026Z,3.60
2018-02-01T15:07:04.442Z,3.50
2018-02-01T15:09:33.651Z,3.40
2018-02-01T15:12:02.851Z,3.50
2018-02-01T15:14:32.057Z,3.50
2018-02-01T15:17:01.259Z,3.40
2018-02-01T15:19:29.698Z,3.40
2018-02-01T15:21:58.166Z,3.40
2018-02-01T15:24:26.606Z,3.30
2018-02-01T15:26:55.043Z,3.40
2018-02-01T15:29:23.555Z,3.30
2018-02-01T15:31:52.392Z,3.30
2018-02-01T15:34:20.846Z,3.30
2018-02-01T15:36:49.310Z,3.20
2018-02-01T15:39:18.502Z,3.20
2018-02-01T15:41:46.991Z,3.20
2018-02-01T15:44:16.178Z,3.20
2018-02-01T15:46:44.618Z,3.20
2018-02-01T15:49:13.062Z,3.20
2018-02-01T15:51:42.334Z,3.20
2018-02-01T15:54:10.758Z,3.10
2018-02-01T15:56:39.195Z,3.20
2018-02-01T15:59:07.739Z,3.20
2018-02-01T16:01:36.167Z,3.20
2018-02-01T16:04:04.606Z,3.20
2018-02-01T16:06:33.041Z,3.10
2018-02-01T16:09:01.490Z,3.00
2018-02-01T16:11:29.958Z,3.00
2018-02-01T16:13:58.414Z,3.00
2018-02-01T16:16:27.233Z,3.00
2018-02-01T16:18:56.065Z,3.00
2018-02-01T16:21:24.506Z,3.00
2018-02-01T16:23:52.966Z,3.00
2018-02-01T16:26:21.386Z,2.90
2018-02-01T16:28:49.819Z,2.90
2018-02-01T16:31:18.642Z,2.80
2018-02-01T16:33:47.067Z,2.90
2018-02-01T16:36:16.294Z,2.80
2018-02-01T16:38:44.735Z,2.80
2018-02-01T16:41:13.329Z,2.80
2018-02-01T16:43:42.543Z,2.80
2018-02-01T16:46:11.741Z,2.80
2018-02-01T16:48:40.947Z,3.00
2018-02-01T16:51:10.145Z,2.90
2018-02-01T16:53:39.372Z,2.90
2018-02-01T16:56:07.800Z,2.90
2018-02-01T16:58:36.254Z,2.90
2018-02-01T17:01:04.693Z,2.70
2018-02-01T17:03:33.899Z,2.80
2018-02-01T17:06:02.717Z,2.80
2018-02-01T17:08:31.161Z,2.70
2018-02-01T17:11:00.386Z,2.60
2018-02-01T17:13:28.510Z,2.60
2018-02-01T17:15:57.895Z,2.70
2018-02-01T17:18:26.758Z,2.70
2018-02-01T17:20:55.966Z,2.70
2018-02-01T17:23:24.827Z,2.70
2018-02-01T17:25:53.681Z,2.60
2018-02-01T17:28:22.922Z,2.70
2018-02-01T17:30:51.737Z,2.60
2018-02-01T17:33:20.934Z,2.70
2018-02-01T17:35:49.840Z,2.70
2018-02-01T17:38:18.669Z,2.70
2018-02-01T17:40:47.858Z,2.60
2018-02-01T17:43:16.697Z,2.60
2018-02-01T17:45:45.886Z,2.60
2018-02-01T17:48:14.749Z,2.80
2018-02-01T17:50:43.951Z,2.70
2018-02-01T17:53:12.798Z,2.60
2018-02-01T17:55:41.613Z,2.70
2018-02-01T17:58:10.057Z,2.60
2018-02-01T18:00:38.930Z,2.60
2018-02-01T18:03:08.252Z,2.70
2018-02-01T18:05:36.731Z,2.60
2018-02-01T18:08:06.033Z,2.60
2018-02-01T18:10:34.868Z,2.60
2018-02-01T18:13:04.615Z,2.60
2018-02-01T18:15:34.165Z,2.50
2018-02-01T18:18:02.794Z,2.50
2018-02-01T18:20:31.602Z,2.60
2018-02-01T18:23:00.798Z,2.60
2018-02-01T18:25:30.086Z,2.70
2018-02-01T18:27:58.915Z,2.70
2018-02-01T18:30:27.738Z,2.60
2018-02-01T18:32:56.950Z,2.60
2018-02-01T18:35:25.770Z,2.60
2018-02-01T18:37:54.987Z,2.60
2018-02-01T18:40:24.214Z,2.60
2018-02-01T18:42:53.056Z,2.60
2018-02-01T18:45:22.255Z,2.70
2018-02-01T18:47:51.078Z,2.60
2018-02-01T18:50:19.506Z,2.60
2018-02-01T18:52:47.918Z,2.60
2018-02-01T18:55:16.385Z,2.70
2018-02-01T18:57:45.595Z,2.70
2018-02-01T19:00:14.046Z,2.50
2018-02-01T19:02:42.494Z,2.50
2018-02-01T19:05:10.121Z,2.50
2018-02-01T19:07:38.666Z,2.50
2018-02-01T19:10:07.102Z,2.50
2018-02-01T19:12:35.591Z,2.60
2018-02-01T19:15:04.038Z,2.60
2018-02-01T19:17:33.259Z,2.50
2018-02-01T19:20:01.704Z,2.50
2018-02-01T19:22:30.554Z,2.50
2018-02-01T19:25:00.116Z,2.50
2018-02-01T19:27:29.354Z,2.50
2018-02-01T19:29:57.791Z,2.40
2018-02-01T19:32:26.446Z,2.30
2018-02-01T19:34:55.343Z,2.40
2018-02-01T19:37:23.788Z,2.50
2018-02-01T19:39:52.260Z,2.30
2018-02-01T19:42:21.488Z,2.20
2018-02-01T19:44:51.058Z,2.30
2018-02-01T19:47:20.284Z,2.40
2018-02-01T19:49:49.476Z,2.40
2018-02-01T19:52:18.343Z,2.50
2018-02-01T19:54:47.531Z,2.40
2018-02-01T19:57:16.358Z,2.50
2018-02-01T19:59:45.687Z,2.50
2018-02-01T20:02:14.544Z,2.60
2018-02-01T20:04:43.359Z,2.50
2018-02-01T20:07:12.637Z,2.60
2018-02-01T20:09:41.453Z,2.70
2018-02-01T20:12:10.668Z,2.70
2018-02-01T20:14:39.874Z,2.70
2018-02-01T20:17:08.750Z,2.60
2018-02-01T20:19:37.586Z,2.60
2018-02-01T20:22:06.574Z,2.60
2018-02-01T20:24:35.128Z,2.50
2018-02-01T20:27:04.363Z,2.50
2018-02-01T20:29:34.359Z,2.40
2018-02-01T20:32:04.329Z,2.40
2018-02-01T20:34:34.154Z,2.30
2018-02-01T20:37:03.296Z,2.20
2018-02-01T20:39:33.281Z,-1.00
2018-02-01T20:42:02.445Z,2.00
2018-02-01T20:44:31.715Z,1.90
2018-02-01T20:47:01.310Z,1.90
2018-02-01T20:49:30.311Z,1.80
2018-02-01T20:51:59.276Z,1.70
2018-02-01T20:54:28.786Z,1.60
2018-02-01T20:56:57.881Z,1.60
2018-02-01T20:59:27.677Z,1.60
2018-02-01T21:01:56.506Z,1.50
2018-02-01T21:04:24.886Z,1.60
2018-02-01T21:06:53.600Z,1.70
2018-02-01T21:09:23.203Z,1.80
2018-02-01T21:11:51.958Z,1.80
2018-02-01T21:14:20.687Z,1.70
2018-02-01T21:16:49.384Z,1.60
2018-02-01T21:19:18.118Z,1.50
2018-02-01T21:21:46.560Z,1.30
2018-02-01T21:24:15.294Z,1.40
2018-02-01T21:26:44.000Z,1.20
2018-02-01T21:29:12.723Z,1.20
2018-02-01T21:31:41.460Z,1.20
2018-02-01T21:34:10.187Z,1.10
2018-02-01T21:36:38.938Z,1.10
2018-02-01T21:39:07.640Z,1.30
2018-02-01T21:41:36.487Z,1.30
2018-02-01T21:44:06.094Z,1.50
2018-02-01T21:46:35.401Z,1.50
2018-02-01T21:49:03.834Z,1.50
2018-02-01T21:51:32.527Z,1.50
2018-02-01T21:54:01.456Z,1.50
2018-02-01T21:56:30.231Z,1.60
2018-02-01T21:58:59.458Z,1.50
2018-02-01T22:01:27.879Z,1.50
2018-02-01T22:03:56.309Z,1.40
2018-02-01T22:06:24.727Z,1.40
2018-02-01T22:08:53.172Z,1.50
2018-02-01T22:11:21.918Z,1.70
2018-02-01T22:13:50.538Z,1.70
2018-02-01T22:16:19.255Z,1.70
2018-02-01T22:18:47.701Z,1.40
2018-02-01T22:21:16.400Z,1.00
2018-02-01T22:23:45.097Z,0.50
2018-02-01T22:26:14.618Z,0.60
2018-02-01T22:28:43.319Z,0.70
2018-02-01T22:31:12.031Z,0.70
2018-02-01T22:33:40.749Z,0.70
2018-02-01T22:36:09.865Z,0.90
2018-02-01T22:38:39.345Z,0.80
2018-02-01T22:41:08.070Z,0.80
2018-02-01T22:43:37.606Z,0.90
2018-02-01T22:46:06.306Z,0.80
2018-02-01T22:48:35.032Z,0.80
2018-02-01T22:51:03.732Z,0.80
2018-02-01T22:53:32.842Z,0.80
2018-02-01T22:56:01.545Z,0.90
2018-02-01T22:58:30.259Z,0.90
2018-02-01T23:00:58.958Z,0.90
2018-02-01T23:03:27.678Z,0.90
2018-02-01T23:05:57.147Z,0.70
2018-02-01T23:08:25.766Z,0.70
2018-02-01T23:10:55.238Z,0.60
2018-02-01T23:13:23.939Z,0.60
2018-02-01T23:15:52.682Z,0.60
2018-02-01T23:18:21.398Z,0.60
2018-02-01T23:20:50.294Z,0.50
2018-02-01T23:23:19.001Z,0.50
2018-02-01T23:25:47.738Z,0.40
2018-02-01T23:28:16.541Z,0.40
2018-02-01T23:30:46.183Z,0.10
2018-02-01T23:33:14.870Z,0.10
2018-02-01T23:35:43.233Z,0.00
2018-02-01T23:38:11.946Z,0.10
2018-02-01T23:40:40.304Z,0.00
2018-02-01T23:43:09.002Z,0.00
2018-02-01T23:45:37.690Z,0.00
2018-02-01T23:48:06.447Z,-0.20
2018-02-01T23:50:35.154Z,-0.30
2018-02-01T23:53:03.983Z,-0.30
2018-02-01T23:55:32.822Z,-0.30
2018-02-01T23:58:01.623Z,-0.20
